sensor_id;sensor_type;location;lat;lon;timestamp;P1;durP1;ratioP1;P2;durP2;ratioP2
35306;SDS011;21420;52.196;21.416;2023-06-19T00:00:49;50.80;;;11.90;;
35306;SDS011;21420;52.196;21.416;2023-06-19T00:03:15;91.00;;;13.30;;
35306;SDS011;21420;52.196;21.416;2023-06-19T00:05:42;52.80;;;18.90;;
35306;SDS011;21420;52.196;21.416;2023-06-19T00:08:09;24.60;;;19.10;;
35306;SDS011;21420;52.196;21.416;2023-06-19T00:10:36;19.30;;;17.40;;
35306;SDS011;21420;52.196;21.416;2023-06-19T00:13:02;20.00;;;18.10;;
35306;SDS011;21420;52.196;21.416;2023-06-19T00:15:29;18.50;;;16.60;;
35306;SDS011;21420;52.196;21.416;2023-06-19T00:17:58;17.60;;;15.30;;
35306;SDS011;21420;52.196;21.416;2023-06-19T00:20:26;15.50;;;14.00;;
35306;SDS011;21420;52.196;21.416;2023-06-19T00:22:52;17.90;;;16.10;;
35306;SDS011;21420;52.196;21.416;2023-06-19T00:25:19;23.80;;;21.50;;
35306;SDS011;21420;52.196;21.416;2023-06-19T00:27:46;19.70;;;17.80;;
35306;SDS011;21420;52.196;21.416;2023-06-19T00:30:14;16.90;;;15.30;;
35306;SDS011;21420;52.196;21.416;2023-06-19T00:32:41;17.40;;;15.60;;
35306;SDS011;21420;52.196;21.416;2023-06-19T00:35:16;17.70;;;15.90;;
35306;SDS011;21420;52.196;21.416;2023-06-19T00:37:48;17.50;;;15.90;;
35306;SDS011;21420;52.196;21.416;2023-06-19T00:40:28;27.90;;;25.00;;
35306;SDS011;21420;52.196;21.416;2023-06-19T00:42:58;18.70;;;16.70;;
35306;SDS011;21420;52.196;21.416;2023-06-19T00:45:26;13.40;;;10.80;;
35306;SDS011;21420;52.196;21.416;2023-06-19T00:47:53;15.00;;;13.50;;
35306;SDS011;21420;52.196;21.416;2023-06-19T00:50:21;15.80;;;12.80;;
35306;SDS011;21420;52.196;21.416;2023-06-19T00:52:48;14.30;;;12.90;;
35306;SDS011;21420;52.196;21.416;2023-06-19T00:55:16;13.70;;;12.10;;
35306;SDS011;21420;52.196;21.416;2023-06-19T00:57:43;13.80;;;12.10;;
35306;SDS011;21420;52.196;21.416;2023-06-19T01:00:11;14.20;;;11.10;;
35306;SDS011;21420;52.196;21.416;2023-06-19T01:02:39;13.00;;;11.70;;
35306;SDS011;21420;52.196;21.416;2023-06-19T01:05:06;14.50;;;13.00;;
35306;SDS011;21420;52.196;21.416;2023-06-19T01:10:07;12.10;;;10.80;;
35306;SDS011;21420;52.196;21.416;2023-06-19T01:12:38;12.50;;;11.40;;
35306;SDS011;21420;52.196;21.416;2023-06-19T01:15:15;18.60;;;16.60;;
35306;SDS011;21420;52.196;21.416;2023-06-19T01:17:42;13.40;;;11.80;;
35306;SDS011;21420;52.196;21.416;2023-06-19T01:22:38;14.50;;;12.90;;
35306;SDS011;21420;52.196;21.416;2023-06-19T01:25:05;17.20;;;15.40;;
35306;SDS011;21420;52.196;21.416;2023-06-19T01:27:35;89.00;;;20.20;;
35306;SDS011;21420;52.196;21.416;2023-06-19T01:30:02;29.10;;;15.10;;
35306;SDS011;21420;52.196;21.416;2023-06-19T01:32:39;17.10;;;15.30;;
35306;SDS011;21420;52.196;21.416;2023-06-19T01:35:11;16.70;;;14.50;;
35306;SDS011;21420;52.196;21.416;2023-06-19T01:37:40;15.00;;;13.50;;
35306;SDS011;21420;52.196;21.416;2023-06-19T01:40:08;19.70;;;16.50;;
35306;SDS011;21420;52.196;21.416;2023-06-19T01:42:37;17.80;;;13.50;;
35306;SDS011;21420;52.196;21.416;2023-06-19T01:45:06;17.70;;;15.80;;
35306;SDS011;21420;52.196;21.416;2023-06-19T01:47:35;17.50;;;14.70;;
35306;SDS011;21420;52.196;21.416;2023-06-19T01:50:02;21.50;;;17.40;;
35306;SDS011;21420;52.196;21.416;2023-06-19T01:52:29;19.00;;;16.80;;
35306;SDS011;21420;52.196;21.416;2023-06-19T01:54:55;15.30;;;13.00;;
35306;SDS011;21420;52.196;21.416;2023-06-19T01:57:22;19.60;;;16.30;;
35306;SDS011;21420;52.196;21.416;2023-06-19T01:59:49;18.60;;;15.00;;
35306;SDS011;21420;52.196;21.416;2023-06-19T02:02:15;19.30;;;16.20;;
35306;SDS011;21420;52.196;21.416;2023-06-19T02:04:42;15.00;;;13.50;;
35306;SDS011;21420;52.196;21.416;2023-06-19T02:07:08;15.90;;;13.20;;
35306;SDS011;21420;52.196;21.416;2023-06-19T02:09:35;15.30;;;13.70;;
35306;SDS011;21420;52.196;21.416;2023-06-19T02:12:04;15.30;;;13.80;;
35306;SDS011;21420;52.196;21.416;2023-06-19T02:14:31;15.90;;;14.20;;
35306;SDS011;21420;52.196;21.416;2023-06-19T02:17:04;17.80;;;16.00;;
35306;SDS011;21420;52.196;21.416;2023-06-19T02:19:31;17.40;;;14.50;;
35306;SDS011;21420;52.196;21.416;2023-06-19T02:21:57;19.00;;;15.60;;
35306;SDS011;21420;52.196;21.416;2023-06-19T02:24:24;17.50;;;15.80;;
35306;SDS011;21420;52.196;21.416;2023-06-19T02:26:51;16.60;;;14.90;;
35306;SDS011;21420;52.196;21.416;2023-06-19T02:29:18;17.10;;;15.30;;
35306;SDS011;21420;52.196;21.416;2023-06-19T02:31:44;16.20;;;14.60;;
35306;SDS011;21420;52.196;21.416;2023-06-19T02:34:11;16.60;;;15.00;;
35306;SDS011;21420;52.196;21.416;2023-06-19T02:36:38;17.70;;;15.80;;
35306;SDS011;21420;52.196;21.416;2023-06-19T02:39:05;15.50;;;14.00;;
35306;SDS011;21420;52.196;21.416;2023-06-19T02:41:34;15.70;;;14.30;;
35306;SDS011;21420;52.196;21.416;2023-06-19T02:44:02;14.10;;;12.80;;
35306;SDS011;21420;52.196;21.416;2023-06-19T02:46:29;13.80;;;12.40;;
35306;SDS011;21420;52.196;21.416;2023-06-19T02:48:55;12.60;;;11.20;;
35306;SDS011;21420;52.196;21.416;2023-06-19T02:51:22;14.20;;;12.80;;
35306;SDS011;21420;52.196;21.416;2023-06-19T02:53:48;12.70;;;11.60;;
35306;SDS011;21420;52.196;21.416;2023-06-19T02:56:15;13.80;;;12.40;;
35306;SDS011;21420;52.196;21.416;2023-06-19T02:58:43;14.40;;;13.00;;
35306;SDS011;21420;52.196;21.416;2023-06-19T03:01:10;13.70;;;12.30;;
35306;SDS011;21420;52.196;21.416;2023-06-19T03:03:37;15.00;;;13.60;;
35306;SDS011;21420;52.196;21.416;2023-06-19T03:06:05;15.40;;;13.40;;
35306;SDS011;21420;52.196;21.416;2023-06-19T03:08:36;14.10;;;12.70;;
35306;SDS011;21420;52.196;21.416;2023-06-19T03:11:04;15.70;;;13.10;;
35306;SDS011;21420;52.196;21.416;2023-06-19T03:13:45;12.90;;;11.60;;
35306;SDS011;21420;52.196;21.416;2023-06-19T03:16:13;12.40;;;11.20;;
35306;SDS011;21420;52.196;21.416;2023-06-19T03:18:41;15.20;;;11.00;;
35306;SDS011;21420;52.196;21.416;2023-06-19T03:23:38;13.20;;;11.30;;
35306;SDS011;21420;52.196;21.416;2023-06-19T03:26:08;13.80;;;12.50;;
35306;SDS011;21420;52.196;21.416;2023-06-19T03:31:05;13.20;;;11.90;;
35306;SDS011;21420;52.196;21.416;2023-06-19T03:33:32;14.40;;;13.10;;
35306;SDS011;21420;52.196;21.416;2023-06-19T03:35:59;14.70;;;13.20;;
35306;SDS011;21420;52.196;21.416;2023-06-19T03:38:38;14.20;;;11.80;;
35306;SDS011;21420;52.196;21.416;2023-06-19T03:41:05;13.70;;;12.30;;
35306;SDS011;21420;52.196;21.416;2023-06-19T03:43:32;13.10;;;11.80;;
35306;SDS011;21420;52.196;21.416;2023-06-19T03:45:59;13.50;;;12.30;;
35306;SDS011;21420;52.196;21.416;2023-06-19T03:48:25;13.50;;;12.20;;
35306;SDS011;21420;52.196;21.416;2023-06-19T03:50:52;14.50;;;12.80;;
35306;SDS011;21420;52.196;21.416;2023-06-19T03:53:19;13.60;;;12.20;;
35306;SDS011;21420;52.196;21.416;2023-06-19T03:55:45;15.20;;;13.80;;
35306;SDS011;21420;52.196;21.416;2023-06-19T03:58:12;17.50;;;15.90;;
35306;SDS011;21420;52.196;21.416;2023-06-19T04:00:39;18.50;;;16.50;;
35306;SDS011;21420;52.196;21.416;2023-06-19T04:03:06;18.10;;;16.30;;
35306;SDS011;21420;52.196;21.416;2023-06-19T04:05:33;17.20;;;15.60;;
35306;SDS011;21420;52.196;21.416;2023-06-19T04:08:00;17.50;;;15.70;;
35306;SDS011;21420;52.196;21.416;2023-06-19T04:10:26;18.30;;;16.50;;
35306;SDS011;21420;52.196;21.416;2023-06-19T04:12:53;17.80;;;16.00;;
35306;SDS011;21420;52.196;21.416;2023-06-19T04:15:22;20.50;;;16.30;;
35306;SDS011;21420;52.196;21.416;2023-06-19T04:17:49;15.80;;;14.30;;
35306;SDS011;21420;52.196;21.416;2023-06-19T04:20:16;16.90;;;14.90;;
35306;SDS011;21420;52.196;21.416;2023-06-19T04:22:45;19.50;;;17.50;;
35306;SDS011;21420;52.196;21.416;2023-06-19T04:25:12;20.80;;;18.50;;
35306;SDS011;21420;52.196;21.416;2023-06-19T04:27:38;19.70;;;17.90;;
35306;SDS011;21420;52.196;21.416;2023-06-19T04:30:05;19.30;;;16.60;;
35306;SDS011;21420;52.196;21.416;2023-06-19T04:32:46;17.70;;;16.00;;
35306;SDS011;21420;52.196;21.416;2023-06-19T04:35:13;18.50;;;16.80;;
35306;SDS011;21420;52.196;21.416;2023-06-19T04:37:40;21.10;;;17.70;;
35306;SDS011;21420;52.196;21.416;2023-06-19T04:40:07;17.50;;;15.90;;
35306;SDS011;21420;52.196;21.416;2023-06-19T04:42:34;19.40;;;16.90;;
35306;SDS011;21420;52.196;21.416;2023-06-19T04:45:00;17.50;;;15.90;;
35306;SDS011;21420;52.196;21.416;2023-06-19T04:47:27;17.10;;;14.10;;
35306;SDS011;21420;52.196;21.416;2023-06-19T04:50:13;18.40;;;16.50;;
35306;SDS011;21420;52.196;21.416;2023-06-19T04:52:42;18.70;;;16.70;;
35306;SDS011;21420;52.196;21.416;2023-06-19T04:55:08;18.60;;;16.80;;
35306;SDS011;21420;52.196;21.416;2023-06-19T04:57:36;17.90;;;16.20;;
35306;SDS011;21420;52.196;21.416;2023-06-19T05:00:04;17.60;;;16.10;;
35306;SDS011;21420;52.196;21.416;2023-06-19T05:02:33;18.60;;;16.90;;
35306;SDS011;21420;52.196;21.416;2023-06-19T05:05:00;18.80;;;17.00;;
35306;SDS011;21420;52.196;21.416;2023-06-19T05:07:29;18.00;;;16.10;;
35306;SDS011;21420;52.196;21.416;2023-06-19T05:09:58;18.10;;;16.40;;
35306;SDS011;21420;52.196;21.416;2023-06-19T05:12:25;17.30;;;15.70;;
35306;SDS011;21420;52.196;21.416;2023-06-19T05:14:51;18.40;;;16.70;;
35306;SDS011;21420;52.196;21.416;2023-06-19T05:17:18;18.50;;;16.90;;
35306;SDS011;21420;52.196;21.416;2023-06-19T05:19:45;18.90;;;17.10;;
35306;SDS011;21420;52.196;21.416;2023-06-19T05:22:12;18.80;;;16.80;;
35306;SDS011;21420;52.196;21.416;2023-06-19T05:24:39;18.90;;;16.90;;
35306;SDS011;21420;52.196;21.416;2023-06-19T05:27:06;18.10;;;16.40;;
35306;SDS011;21420;52.196;21.416;2023-06-19T05:29:33;16.00;;;14.50;;
35306;SDS011;21420;52.196;21.416;2023-06-19T05:32:00;13.20;;;12.00;;
35306;SDS011;21420;52.196;21.416;2023-06-19T05:34:27;14.60;;;13.20;;
35306;SDS011;21420;52.196;21.416;2023-06-19T05:36:53;15.70;;;14.20;;
35306;SDS011;21420;52.196;21.416;2023-06-19T05:39:20;15.60;;;14.20;;
35306;SDS011;21420;52.196;21.416;2023-06-19T05:41:47;14.30;;;13.00;;
35306;SDS011;21420;52.196;21.416;2023-06-19T05:44:14;14.90;;;13.60;;
35306;SDS011;21420;52.196;21.416;2023-06-19T05:46:45;14.20;;;12.80;;
35306;SDS011;21420;52.196;21.416;2023-06-19T05:49:12;13.30;;;12.00;;
35306;SDS011;21420;52.196;21.416;2023-06-19T05:51:38;14.10;;;12.80;;
35306;SDS011;21420;52.196;21.416;2023-06-19T05:54:05;13.30;;;12.10;;
35306;SDS011;21420;52.196;21.416;2023-06-19T05:56:33;14.60;;;13.30;;
35306;SDS011;21420;52.196;21.416;2023-06-19T05:59:00;14.10;;;13.00;;
35306;SDS011;21420;52.196;21.416;2023-06-19T06:01:28;14.00;;;12.70;;
35306;SDS011;21420;52.196;21.416;2023-06-19T06:03:56;13.50;;;12.40;;
35306;SDS011;21420;52.196;21.416;2023-06-19T06:06:23;15.10;;;13.70;;
35306;SDS011;21420;52.196;21.416;2023-06-19T06:08:50;14.90;;;13.60;;
35306;SDS011;21420;52.196;21.416;2023-06-19T06:11:21;15.10;;;13.70;;
35306;SDS011;21420;52.196;21.416;2023-06-19T06:13:48;12.80;;;11.60;;
35306;SDS011;21420;52.196;21.416;2023-06-19T06:16:15;13.70;;;12.40;;
35306;SDS011;21420;52.196;21.416;2023-06-19T06:18:44;9.90;;;9.10;;
35306;SDS011;21420;52.196;21.416;2023-06-19T06:21:11;11.70;;;10.70;;
35306;SDS011;21420;52.196;21.416;2023-06-19T06:23:42;12.20;;;11.20;;
35306;SDS011;21420;52.196;21.416;2023-06-19T06:26:11;14.10;;;13.00;;
35306;SDS011;21420;52.196;21.416;2023-06-19T06:28:37;14.20;;;12.90;;
35306;SDS011;21420;52.196;21.416;2023-06-19T06:31:05;11.40;;;9.80;;
35306;SDS011;21420;52.196;21.416;2023-06-19T06:33:33;12.70;;;11.60;;
35306;SDS011;21420;52.196;21.416;2023-06-19T06:36:00;11.60;;;10.60;;
35306;SDS011;21420;52.196;21.416;2023-06-19T06:38:27;11.60;;;10.70;;
35306;SDS011;21420;52.196;21.416;2023-06-19T06:40:54;12.80;;;11.80;;
35306;SDS011;21420;52.196;21.416;2023-06-19T06:43:20;13.10;;;12.00;;
35306;SDS011;21420;52.196;21.416;2023-06-19T06:45:47;12.60;;;11.50;;
35306;SDS011;21420;52.196;21.416;2023-06-19T06:48:14;12.00;;;10.30;;
35306;SDS011;21420;52.196;21.416;2023-06-19T06:50:42;10.10;;;9.10;;
35306;SDS011;21420;52.196;21.416;2023-06-19T06:53:10;10.20;;;9.10;;
35306;SDS011;21420;52.196;21.416;2023-06-19T06:55:36;12.10;;;9.10;;
35306;SDS011;21420;52.196;21.416;2023-06-19T06:58:03;9.40;;;8.60;;
35306;SDS011;21420;52.196;21.416;2023-06-19T07:00:29;10.30;;;9.40;;
35306;SDS011;21420;52.196;21.416;2023-06-19T07:02:56;10.30;;;9.30;;
35306;SDS011;21420;52.196;21.416;2023-06-19T07:05:23;9.20;;;8.40;;
35306;SDS011;21420;52.196;21.416;2023-06-19T07:07:50;8.10;;;7.50;;
35306;SDS011;21420;52.196;21.416;2023-06-19T07:10:16;7.10;;;6.50;;
35306;SDS011;21420;52.196;21.416;2023-06-19T07:12:49;10.00;;;9.10;;
35306;SDS011;21420;52.196;21.416;2023-06-19T07:15:16;10.20;;;9.30;;
35306;SDS011;21420;52.196;21.416;2023-06-19T07:17:45;10.40;;;9.50;;
35306;SDS011;21420;52.196;21.416;2023-06-19T07:20:12;10.10;;;9.30;;
35306;SDS011;21420;52.196;21.416;2023-06-19T07:25:09;9.60;;;8.70;;
35306;SDS011;21420;52.196;21.416;2023-06-19T07:27:38;9.10;;;8.30;;
35306;SDS011;21420;52.196;21.416;2023-06-19T07:30:07;8.30;;;7.60;;
35306;SDS011;21420;52.196;21.416;2023-06-19T07:32:34;8.00;;;7.30;;
35306;SDS011;21420;52.196;21.416;2023-06-19T07:35:01;9.00;;;8.30;;
35306;SDS011;21420;52.196;21.416;2023-06-19T07:37:27;6.60;;;6.10;;
35306;SDS011;21420;52.196;21.416;2023-06-19T07:39:54;8.50;;;7.80;;
35306;SDS011;21420;52.196;21.416;2023-06-19T07:42:22;8.10;;;7.40;;
35306;SDS011;21420;52.196;21.416;2023-06-19T07:44:50;8.00;;;6.50;;
35306;SDS011;21420;52.196;21.416;2023-06-19T07:47:17;7.30;;;6.70;;
35306;SDS011;21420;52.196;21.416;2023-06-19T07:49:45;6.50;;;6.00;;
35306;SDS011;21420;52.196;21.416;2023-06-19T07:52:12;7.50;;;6.90;;
35306;SDS011;21420;52.196;21.416;2023-06-19T07:54:52;6.80;;;6.20;;
35306;SDS011;21420;52.196;21.416;2023-06-19T07:57:21;5.90;;;5.50;;
35306;SDS011;21420;52.196;21.416;2023-06-19T07:59:48;7.10;;;6.60;;
35306;SDS011;21420;52.196;21.416;2023-06-19T08:02:16;7.20;;;6.60;;
35306;SDS011;21420;52.196;21.416;2023-06-19T08:04:45;7.50;;;6.80;;
35306;SDS011;21420;52.196;21.416;2023-06-19T08:07:13;6.60;;;6.10;;
35306;SDS011;21420;52.196;21.416;2023-06-19T08:09:39;7.30;;;6.70;;
35306;SDS011;21420;52.196;21.416;2023-06-19T08:12:07;7.00;;;6.40;;
35306;SDS011;21420;52.196;21.416;2023-06-19T08:14:33;7.00;;;6.40;;
35306;SDS011;21420;52.196;21.416;2023-06-19T08:17:00;6.80;;;6.30;;
35306;SDS011;21420;52.196;21.416;2023-06-19T08:19:28;6.80;;;6.20;;
35306;SDS011;21420;52.196;21.416;2023-06-19T08:21:55;7.10;;;6.60;;
35306;SDS011;21420;52.196;21.416;2023-06-19T08:24:22;7.50;;;7.00;;
35306;SDS011;21420;52.196;21.416;2023-06-19T08:26:48;7.50;;;5.40;;
35306;SDS011;21420;52.196;21.416;2023-06-19T08:29:18;5.70;;;5.30;;
35306;SDS011;21420;52.196;21.416;2023-06-19T08:31:45;7.80;;;6.70;;
35306;SDS011;21420;52.196;21.416;2023-06-19T08:34:14;5.90;;;5.50;;
35306;SDS011;21420;52.196;21.416;2023-06-19T08:36:41;6.50;;;5.90;;
35306;SDS011;21420;52.196;21.416;2023-06-19T08:39:07;6.40;;;5.90;;
35306;SDS011;21420;52.196;21.416;2023-06-19T08:41:38;6.40;;;5.80;;
35306;SDS011;21420;52.196;21.416;2023-06-19T08:44:05;6.40;;;6.00;;
35306;SDS011;21420;52.196;21.416;2023-06-19T08:46:32;6.10;;;5.60;;
35306;SDS011;21420;52.196;21.416;2023-06-19T08:49:01;8.50;;;5.20;;
35306;SDS011;21420;52.196;21.416;2023-06-19T08:51:28;5.60;;;5.10;;
35306;SDS011;21420;52.196;21.416;2023-06-19T08:54:05;5.80;;;5.00;;
35306;SDS011;21420;52.196;21.416;2023-06-19T08:56:37;4.90;;;4.50;;
35306;SDS011;21420;52.196;21.416;2023-06-19T08:59:07;5.50;;;5.00;;
35306;SDS011;21420;52.196;21.416;2023-06-19T09:01:47;4.80;;;4.40;;
35306;SDS011;21420;52.196;21.416;2023-06-19T09:04:27;5.10;;;4.80;;
35306;SDS011;21420;52.196;21.416;2023-06-19T09:06:55;5.10;;;4.70;;
35306;SDS011;21420;52.196;21.416;2023-06-19T09:09:24;5.00;;;4.60;;
35306;SDS011;21420;52.196;21.416;2023-06-19T09:16:59;5.60;;;4.90;;
35306;SDS011;21420;52.196;21.416;2023-06-19T09:19:27;5.10;;;4.60;;
35306;SDS011;21420;52.196;21.416;2023-06-19T09:21:58;5.80;;;4.70;;
35306;SDS011;21420;52.196;21.416;2023-06-19T09:24:39;5.00;;;4.50;;
35306;SDS011;21420;52.196;21.416;2023-06-19T09:27:08;4.50;;;4.20;;
35306;SDS011;21420;52.196;21.416;2023-06-19T09:29:43;4.80;;;4.50;;
35306;SDS011;21420;52.196;21.416;2023-06-19T09:32:27;4.80;;;4.40;;
35306;SDS011;21420;52.196;21.416;2023-06-19T09:34:55;4.90;;;4.30;;
35306;SDS011;21420;52.196;21.416;2023-06-19T09:37:27;4.70;;;4.40;;
35306;SDS011;21420;52.196;21.416;2023-06-19T09:39:55;5.10;;;4.30;;
35306;SDS011;21420;52.196;21.416;2023-06-19T09:45:01;5.30;;;4.80;;
35306;SDS011;21420;52.196;21.416;2023-06-19T09:47:36;4.90;;;4.50;;
35306;SDS011;21420;52.196;21.416;2023-06-19T09:50:15;4.60;;;4.20;;
35306;SDS011;21420;52.196;21.416;2023-06-19T09:52:46;5.10;;;4.60;;
35306;SDS011;21420;52.196;21.416;2023-06-19T09:55:14;4.10;;;3.80;;
35306;SDS011;21420;52.196;21.416;2023-06-19T09:57:41;4.60;;;4.20;;
35306;SDS011;21420;52.196;21.416;2023-06-19T10:00:10;4.00;;;3.60;;
35306;SDS011;21420;52.196;21.416;2023-06-19T10:02:40;4.50;;;4.10;;
35306;SDS011;21420;52.196;21.416;2023-06-19T10:05:09;4.40;;;3.60;;
35306;SDS011;21420;52.196;21.416;2023-06-19T10:07:44;4.30;;;4.00;;
35306;SDS011;21420;52.196;21.416;2023-06-19T10:10:22;4.00;;;3.70;;
35306;SDS011;21420;52.196;21.416;2023-06-19T10:12:59;4.00;;;3.70;;
35306;SDS011;21420;52.196;21.416;2023-06-19T10:15:41;3.80;;;3.50;;
35306;SDS011;21420;52.196;21.416;2023-06-19T10:18:14;3.60;;;3.30;;
35306;SDS011;21420;52.196;21.416;2023-06-19T10:20:45;4.00;;;3.70;;
35306;SDS011;21420;52.196;21.416;2023-06-19T10:23:15;3.90;;;3.60;;
35306;SDS011;21420;52.196;21.416;2023-06-19T10:25:47;4.40;;;3.70;;
35306;SDS011;21420;52.196;21.416;2023-06-19T10:28:27;4.30;;;4.00;;
35306;SDS011;21420;52.196;21.416;2023-06-19T10:30:59;3.60;;;3.30;;
35306;SDS011;21420;52.196;21.416;2023-06-19T10:33:32;4.50;;;4.20;;
35306;SDS011;21420;52.196;21.416;2023-06-19T10:36:01;4.00;;;3.50;;
35306;SDS011;21420;52.196;21.416;2023-06-19T10:38:40;5.20;;;4.00;;
35306;SDS011;21420;52.196;21.416;2023-06-19T10:41:14;4.20;;;3.80;;
35306;SDS011;21420;52.196;21.416;2023-06-19T10:43:51;18.20;;;16.40;;
35306;SDS011;21420;52.196;21.416;2023-06-19T10:46:24;4.50;;;4.20;;
35306;SDS011;21420;52.196;21.416;2023-06-19T10:48:57;3.70;;;3.40;;
35306;SDS011;21420;52.196;21.416;2023-06-19T10:51:28;3.70;;;3.50;;
35306;SDS011;21420;52.196;21.416;2023-06-19T10:53:55;4.60;;;4.30;;
35306;SDS011;21420;52.196;21.416;2023-06-19T10:56:23;3.80;;;3.60;;
35306;SDS011;21420;52.196;21.416;2023-06-19T10:59:04;3.40;;;3.20;;
35306;SDS011;21420;52.196;21.416;2023-06-19T11:01:39;3.70;;;3.40;;
35306;SDS011;21420;52.196;21.416;2023-06-19T11:04:12;7.10;;;6.50;;
35306;SDS011;21420;52.196;21.416;2023-06-19T11:06:41;5.10;;;4.60;;
35306;SDS011;21420;52.196;21.416;2023-06-19T11:09:10;4.60;;;4.30;;
35306;SDS011;21420;52.196;21.416;2023-06-19T11:11:41;4.20;;;3.90;;
35306;SDS011;21420;52.196;21.416;2023-06-19T11:14:10;4.50;;;4.10;;
35306;SDS011;21420;52.196;21.416;2023-06-19T11:16:40;4.30;;;3.90;;
35306;SDS011;21420;52.196;21.416;2023-06-19T11:19:21;4.60;;;3.60;;
35306;SDS011;21420;52.196;21.416;2023-06-19T11:21:50;4.10;;;3.80;;
35306;SDS011;21420;52.196;21.416;2023-06-19T11:24:18;4.20;;;3.80;;
35306;SDS011;21420;52.196;21.416;2023-06-19T11:26:49;4.40;;;4.00;;
35306;SDS011;21420;52.196;21.416;2023-06-19T11:29:21;4.40;;;4.10;;
35306;SDS011;21420;52.196;21.416;2023-06-19T11:32:07;4.60;;;4.20;;
35306;SDS011;21420;52.196;21.416;2023-06-19T11:34:38;4.10;;;3.70;;
35306;SDS011;21420;52.196;21.416;2023-06-19T11:37:14;4.60;;;3.40;;
35306;SDS011;21420;52.196;21.416;2023-06-19T11:39:45;4.10;;;3.70;;
35306;SDS011;21420;52.196;21.416;2023-06-19T11:42:14;3.10;;;2.90;;
35306;SDS011;21420;52.196;21.416;2023-06-19T11:47:26;4.30;;;3.90;;
35306;SDS011;21420;52.196;21.416;2023-06-19T11:49:58;4.20;;;3.90;;
35306;SDS011;21420;52.196;21.416;2023-06-19T11:52:26;4.00;;;3.60;;
35306;SDS011;21420;52.196;21.416;2023-06-19T11:54:53;3.90;;;3.60;;
35306;SDS011;21420;52.196;21.416;2023-06-19T11:57:20;4.10;;;3.70;;
35306;SDS011;21420;52.196;21.416;2023-06-19T11:59:46;4.00;;;3.80;;
35306;SDS011;21420;52.196;21.416;2023-06-19T12:02:15;4.10;;;3.80;;
35306;SDS011;21420;52.196;21.416;2023-06-19T12:04:42;4.10;;;3.50;;
35306;SDS011;21420;52.196;21.416;2023-06-19T12:07:09;4.00;;;3.80;;
35306;SDS011;21420;52.196;21.416;2023-06-19T12:09:37;3.90;;;3.70;;
35306;SDS011;21420;52.196;21.416;2023-06-19T12:12:06;4.00;;;3.80;;
35306;SDS011;21420;52.196;21.416;2023-06-19T12:14:33;5.90;;;5.40;;
35306;SDS011;21420;52.196;21.416;2023-06-19T12:17:03;3.90;;;3.70;;
35306;SDS011;21420;52.196;21.416;2023-06-19T12:19:30;6.80;;;3.90;;
35306;SDS011;21420;52.196;21.416;2023-06-19T12:21:57;4.10;;;3.70;;
35306;SDS011;21420;52.196;21.416;2023-06-19T12:24:25;3.80;;;3.60;;
35306;SDS011;21420;52.196;21.416;2023-06-19T12:26:55;4.00;;;3.70;;
35306;SDS011;21420;52.196;21.416;2023-06-19T12:29:22;4.60;;;4.30;;
35306;SDS011;21420;52.196;21.416;2023-06-19T12:31:48;4.10;;;3.80;;
35306;SDS011;21420;52.196;21.416;2023-06-19T12:34:15;4.40;;;4.10;;
35306;SDS011;21420;52.196;21.416;2023-06-19T12:36:56;4.50;;;4.10;;
35306;SDS011;21420;52.196;21.416;2023-06-19T12:39:24;5.80;;;4.40;;
35306;SDS011;21420;52.196;21.416;2023-06-19T12:41:51;4.50;;;4.20;;
35306;SDS011;21420;52.196;21.416;2023-06-19T12:44:19;5.30;;;4.30;;
35306;SDS011;21420;52.196;21.416;2023-06-19T12:46:48;4.20;;;3.90;;
35306;SDS011;21420;52.196;21.416;2023-06-19T12:49:15;5.50;;;5.00;;
35306;SDS011;21420;52.196;21.416;2023-06-19T12:51:42;5.50;;;5.00;;
35306;SDS011;21420;52.196;21.416;2023-06-19T12:54:09;5.20;;;4.70;;
35306;SDS011;21420;52.196;21.416;2023-06-19T12:56:36;4.60;;;4.20;;
35306;SDS011;21420;52.196;21.416;2023-06-19T12:59:03;4.50;;;4.20;;
35306;SDS011;21420;52.196;21.416;2023-06-19T13:01:30;5.80;;;5.20;;
35306;SDS011;21420;52.196;21.416;2023-06-19T13:03:57;4.40;;;4.00;;
35306;SDS011;21420;52.196;21.416;2023-06-19T13:06:24;4.80;;;4.50;;
35306;SDS011;21420;52.196;21.416;2023-06-19T13:08:51;5.20;;;4.80;;
35306;SDS011;21420;52.196;21.416;2023-06-19T13:11:18;5.70;;;4.50;;
35306;SDS011;21420;52.196;21.416;2023-06-19T13:13:45;4.80;;;4.50;;
35306;SDS011;21420;52.196;21.416;2023-06-19T13:16:15;5.10;;;4.70;;
35306;SDS011;21420;52.196;21.416;2023-06-19T13:18:42;4.10;;;3.80;;
35306;SDS011;21420;52.196;21.416;2023-06-19T13:21:09;5.90;;;5.40;;
35306;SDS011;21420;52.196;21.416;2023-06-19T13:23:37;5.10;;;4.70;;
35306;SDS011;21420;52.196;21.416;2023-06-19T13:26:07;4.90;;;4.60;;
35306;SDS011;21420;52.196;21.416;2023-06-19T13:28:34;4.90;;;4.50;;
35306;SDS011;21420;52.196;21.416;2023-06-19T13:31:00;5.20;;;4.80;;
35306;SDS011;21420;52.196;21.416;2023-06-19T13:33:27;5.40;;;4.90;;
35306;SDS011;21420;52.196;21.416;2023-06-19T13:35:55;5.70;;;5.30;;
35306;SDS011;21420;52.196;21.416;2023-06-19T13:38:25;6.00;;;5.50;;
35306;SDS011;21420;52.196;21.416;2023-06-19T13:40:52;5.90;;;5.40;;
35306;SDS011;21420;52.196;21.416;2023-06-19T13:43:19;5.90;;;5.50;;
35306;SDS011;21420;52.196;21.416;2023-06-19T13:45:49;5.70;;;5.20;;
35306;SDS011;21420;52.196;21.416;2023-06-19T13:48:16;5.30;;;5.00;;
35306;SDS011;21420;52.196;21.416;2023-06-19T13:50:43;6.20;;;4.90;;
35306;SDS011;21420;52.196;21.416;2023-06-19T13:53:10;6.20;;;5.70;;
35306;SDS011;21420;52.196;21.416;2023-06-19T13:55:37;6.00;;;5.40;;
35306;SDS011;21420;52.196;21.416;2023-06-19T13:58:03;6.40;;;5.80;;
35306;SDS011;21420;52.196;21.416;2023-06-19T14:00:30;5.50;;;5.00;;
35306;SDS011;21420;52.196;21.416;2023-06-19T14:02:58;5.90;;;5.30;;
35306;SDS011;21420;52.196;21.416;2023-06-19T14:05:24;5.80;;;5.30;;
35306;SDS011;21420;52.196;21.416;2023-06-19T14:07:53;7.50;;;5.80;;
35306;SDS011;21420;52.196;21.416;2023-06-19T14:10:21;6.00;;;5.20;;
35306;SDS011;21420;52.196;21.416;2023-06-19T14:12:48;5.80;;;5.40;;
35306;SDS011;21420;52.196;21.416;2023-06-19T14:15:15;6.20;;;5.60;;
35306;SDS011;21420;52.196;21.416;2023-06-19T14:17:41;6.10;;;5.20;;
35306;SDS011;21420;52.196;21.416;2023-06-19T14:20:11;5.70;;;4.60;;
35306;SDS011;21420;52.196;21.416;2023-06-19T14:22:41;8.60;;;5.30;;
35306;SDS011;21420;52.196;21.416;2023-06-19T14:25:08;5.90;;;5.40;;
35306;SDS011;21420;52.196;21.416;2023-06-19T14:27:35;5.80;;;5.30;;
35306;SDS011;21420;52.196;21.416;2023-06-19T14:30:02;6.30;;;5.70;;
35306;SDS011;21420;52.196;21.416;2023-06-19T14:32:30;5.10;;;4.70;;
35306;SDS011;21420;52.196;21.416;2023-06-19T14:34:57;7.50;;;5.80;;
35306;SDS011;21420;52.196;21.416;2023-06-19T14:37:23;6.40;;;5.90;;
35306;SDS011;21420;52.196;21.416;2023-06-19T14:39:50;6.30;;;5.80;;
35306;SDS011;21420;52.196;21.416;2023-06-19T14:42:17;6.70;;;6.10;;
35306;SDS011;21420;52.196;21.416;2023-06-19T14:44:44;7.00;;;6.50;;
35306;SDS011;21420;52.196;21.416;2023-06-19T14:47:11;7.30;;;6.60;;
35306;SDS011;21420;52.196;21.416;2023-06-19T14:49:37;5.80;;;5.40;;
35306;SDS011;21420;52.196;21.416;2023-06-19T14:52:05;6.70;;;6.10;;
35306;SDS011;21420;52.196;21.416;2023-06-19T14:54:32;7.10;;;6.00;;